createdAt,value
2023-02-05T00:02:24.555Z,87.18
2023-02-05T00:04:53.498Z,87.42
2023-02-05T00:07:31.014Z,85.96
2023-02-05T00:09:59.661Z,86.00
2023-02-05T00:12:28.401Z,86.29
2023-02-05T00:14:58.887Z,84.95
2023-02-05T00:17:27.379Z,86.13
2023-02-05T00:19:56.815Z,87.38
2023-02-05T00:22:25.595Z,86.60
2023-02-05T00:24:54.224Z,86.15
2023-02-05T00:27:23.041Z,85.41
2023-02-05T00:29:52.153Z,85.69
2023-02-05T00:32:22.487Z,86.33
2023-02-05T00:34:51.298Z,86.07
2023-02-05T00:37:20.097Z,85.49
2023-02-05T00:39:49.137Z,84.56
2023-02-05T00:42:17.883Z,84.60
2023-02-05T00:44:47.683Z,84.39
2023-02-05T00:47:16.170Z,84.66
2023-02-05T00:49:47.007Z,85.24
2023-02-05T00:52:15.747Z,85.38
2023-02-05T00:54:46.544Z,86.02
2023-02-05T00:57:17.636Z,85.70
2023-02-05T00:59:46.345Z,85.09
2023-02-05T01:02:15.191Z,84.17
2023-02-05T01:04:45.642Z,85.61
2023-02-05T01:07:14.021Z,86.33
2023-02-05T01:09:42.550Z,84.76
2023-02-05T01:12:17.215Z,85.50
2023-02-05T01:14:45.938Z,84.09
2023-02-05T01:17:14.700Z,84.49
2023-02-05T01:19:43.415Z,85.88
2023-02-05T01:22:13.966Z,85.06
2023-02-05T01:24:42.733Z,85.13
2023-02-05T01:27:11.908Z,86.19
2023-02-05T01:29:41.087Z,86.54
2023-02-05T01:32:10.523Z,86.15
2023-02-05T01:34:39.574Z,86.27
2023-02-05T01:37:08.154Z,88.02
2023-02-05T01:39:38.408Z,88.12
2023-02-05T01:42:16.784Z,89.07
2023-02-05T01:44:45.536Z,88.96
2023-02-05T01:47:14.119Z,90.60
2023-02-05T01:49:44.277Z,90.61
2023-02-05T01:52:16.083Z,92.08
2023-02-05T01:54:49.042Z,93.25
2023-02-05T01:57:42.705Z,93.28
2023-02-05T02:00:12.148Z,92.12
2023-02-05T02:02:40.946Z,92.50
2023-02-05T02:05:15.163Z,92.12
2023-02-05T02:07:44.037Z,93.29
2023-02-05T02:10:19.470Z,92.41
2023-02-05T02:12:49.799Z,93.37
2023-02-05T02:15:20.257Z,92.92
2023-02-05T02:17:51.734Z,94.11
2023-02-05T02:20:22.102Z,95.32
2023-02-05T02:23:00.274Z,95.88
2023-02-05T02:25:54.497Z,95.88
2023-02-05T02:28:28.730Z,96.58
2023-02-05T02:31:01.569Z,95.81
2023-02-05T02:33:36.298Z,95.58
2023-02-05T02:36:10.761Z,93.43
2023-02-05T02:38:42.906Z,92.03
2023-02-05T02:41:16.206Z,90.78
2023-02-05T02:43:50.550Z,90.92
2023-02-05T02:46:22.667Z,89.84
2023-02-05T02:48:53.038Z,89.83
2023-02-05T02:51:23.059Z,89.58
2023-02-05T02:53:54.604Z,89.82
2023-02-05T02:56:28.654Z,90.43
2023-02-05T02:59:02.707Z,90.13
2023-02-05T03:01:32.909Z,89.86
2023-02-05T03:04:06.581Z,90.77
2023-02-05T03:06:35.427Z,90.61
2023-02-05T03:09:07.988Z,91.32
2023-02-05T03:11:36.828Z,91.50
2023-02-05T03:14:06.758Z,90.66
2023-02-05T03:16:35.366Z,90.42
2023-02-05T03:19:07.735Z,91.04
2023-02-05T03:21:40.240Z,90.72
2023-02-05T03:24:09.808Z,90.25
2023-02-05T03:26:39.424Z,90.21
2023-02-05T03:29:10.763Z,89.59
2023-02-05T03:31:47.266Z,89.89
2023-02-05T03:34:26.002Z,90.05
2023-02-05T03:37:01.680Z,90.46
2023-02-05T03:39:40.845Z,90.06
2023-02-05T03:42:17.359Z,89.87
2023-02-05T03:45:04.916Z,90.68
2023-02-05T03:47:39.978Z,89.19
2023-02-05T03:50:16.772Z,90.04
2023-02-05T03:52:50.051Z,90.44
2023-02-05T03:55:21.583Z,90.48
2023-02-05T03:57:53.963Z,90.82
2023-02-05T04:00:34.504Z,91.39
2023-02-05T04:03:03.330Z,90.97
2023-02-05T04:05:32.244Z,91.27
2023-02-05T04:08:01.019Z,91.42
2023-02-05T04:10:32.772Z,91.15
2023-02-05T04:13:01.153Z,91.66
2023-02-05T04:15:30.108Z,90.94
2023-02-05T04:18:00.193Z,91.44
2023-02-05T04:20:28.811Z,91.51
2023-02-05T04:22:57.441Z,91.83
2023-02-05T04:25:25.952Z,92.33
2023-02-05T04:27:55.667Z,92.15
2023-02-05T04:30:24.556Z,91.59
2023-02-05T04:32:53.180Z,92.50
2023-02-05T04:35:32.671Z,91.94
2023-02-05T04:38:01.381Z,92.37
2023-02-05T04:40:30.237Z,92.91
2023-02-05T04:42:58.805Z,93.61
2023-02-05T04:45:31.465Z,93.78
2023-02-05T04:48:00.681Z,95.28
2023-02-05T04:50:30.845Z,94.70
2023-02-05T04:53:00.339Z,95.51
2023-02-05T04:55:32.576Z,95.16
2023-02-05T04:58:01.201Z,95.62
2023-02-05T05:00:30.927Z,96.50
2023-02-05T05:02:59.988Z,96.51
2023-02-05T05:05:31.251Z,96.55
2023-02-05T05:08:02.263Z,96.39
2023-02-05T05:10:33.587Z,96.00
2023-02-05T05:13:02.209Z,95.44
2023-02-05T05:15:30.795Z,96.12
2023-02-05T05:17:59.688Z,95.58
2023-02-05T05:20:30.043Z,95.86
2023-02-05T05:22:58.528Z,95.29
2023-02-05T05:25:32.123Z,95.42
2023-02-05T05:28:02.137Z,96.27
2023-02-05T05:30:30.941Z,95.98
2023-02-05T05:32:59.453Z,95.76
2023-02-05T05:35:28.197Z,95.57
2023-02-05T05:38:03.017Z,95.21
2023-02-05T05:40:51.317Z,94.89
2023-02-05T05:43:38.793Z,94.48
2023-02-05T05:46:08.520Z,94.82
2023-02-05T05:48:37.103Z,95.51
2023-02-05T05:51:06.038Z,95.12
2023-02-05T05:53:34.895Z,96.09
2023-02-05T05:56:05.121Z,97.04
2023-02-05T05:58:34.744Z,97.52
2023-02-05T06:01:03.364Z,97.93
2023-02-05T06:03:32.216Z,98.04
2023-02-05T06:06:02.682Z,98.41
2023-02-05T06:08:33.715Z,98.48
2023-02-05T06:11:02.316Z,97.67
2023-02-05T06:13:32.624Z,97.98
2023-02-05T06:16:01.163Z,97.47
2023-02-05T06:18:31.452Z,97.68
2023-02-05T06:20:59.885Z,97.22
2023-02-05T06:23:28.737Z,96.97
2023-02-05T06:25:57.357Z,97.18
2023-02-05T06:28:25.924Z,96.27
2023-02-05T06:30:55.909Z,96.84
2023-02-05T06:33:24.648Z,96.63
2023-02-05T06:35:55.539Z,96.16
2023-02-05T06:38:24.296Z,96.21
2023-02-05T06:44:39.122Z,98.47
2023-02-05T06:47:09.010Z,97.98
2023-02-05T06:49:37.520Z,96.55
2023-02-05T06:52:06.603Z,95.85
2023-02-05T06:54:35.471Z,95.03
2023-02-05T06:57:04.315Z,93.94
2023-02-05T06:59:32.872Z,93.22
2023-02-05T07:02:01.815Z,93.33
2023-02-05T07:04:32.342Z,92.48
2023-02-05T07:07:03.345Z,91.80
2023-02-05T07:09:32.156Z,91.87
2023-02-05T07:12:00.693Z,90.95
2023-02-05T07:14:31.716Z,90.66
2023-02-05T07:17:00.630Z,90.23
2023-02-05T07:19:29.603Z,91.12
2023-02-05T07:22:01.042Z,90.43
2023-02-05T07:24:32.028Z,90.03
2023-02-05T07:27:01.034Z,90.45
2023-02-05T07:29:29.850Z,89.60
2023-02-05T07:31:58.696Z,88.84
2023-02-05T07:34:27.598Z,88.89
2023-02-05T07:36:56.034Z,89.39
2023-02-05T07:39:30.295Z,89.08
2023-02-05T07:41:58.992Z,87.96
2023-02-05T07:44:27.601Z,86.36
2023-02-05T07:46:56.011Z,86.47
2023-02-05T07:49:27.494Z,85.75
2023-02-05T07:51:56.120Z,85.17
2023-02-05T07:54:26.079Z,85.08
2023-02-05T07:56:55.554Z,84.23
2023-02-05T07:59:24.697Z,82.09
2023-02-05T08:01:53.274Z,81.86
2023-02-05T08:04:21.816Z,81.92
2023-02-05T08:06:50.598Z,81.40
2023-02-05T08:09:19.218Z,80.08
2023-02-05T08:11:48.757Z,79.30
2023-02-05T08:14:17.557Z,79.78
2023-02-05T08:16:46.137Z,75.14
2023-02-05T08:19:16.681Z,68.07
2023-02-05T08:21:46.378Z,68.90
2023-02-05T08:24:16.973Z,69.67
2023-02-05T08:26:45.384Z,68.99
2023-02-05T08:29:15.727Z,70.81
2023-02-05T08:31:44.741Z,69.70
2023-02-05T08:34:13.301Z,67.14
2023-02-05T08:36:42.323Z,59.18
2023-02-05T08:39:11.116Z,52.24
2023-02-05T08:41:39.742Z,44.86
2023-02-05T08:44:08.579Z,40.63
2023-02-05T08:46:49.793Z,37.01
2023-02-05T08:49:19.466Z,34.41
2023-02-05T08:51:48.362Z,32.28
2023-02-05T08:54:19.478Z,33.57
2023-02-05T08:56:56.164Z,34.26
2023-02-05T08:59:27.283Z,35.21
2023-02-05T09:02:17.410Z,35.19
2023-02-05T09:04:50.232Z,33.80
2023-02-05T09:07:19.035Z,30.97
2023-02-05T09:09:48.325Z,29.21
2023-02-05T09:12:16.943Z,28.60
2023-02-05T09:14:45.726Z,29.29
2023-02-05T09:17:16.009Z,29.82
2023-02-05T09:19:44.755Z,28.05
2023-02-05T09:22:13.302Z,27.27
2023-02-05T09:24:41.876Z,26.61
2023-02-05T09:27:14.393Z,26.29
2023-02-05T09:29:43.162Z,28.10
2023-02-05T09:32:12.010Z,28.50
2023-02-05T09:34:44.314Z,26.76
2023-02-05T09:37:12.908Z,25.67
2023-02-05T09:40:19.011Z,26.08
2023-02-05T09:42:45.447Z,25.87
2023-02-05T09:45:28.357Z,26.27
2023-02-05T09:48:04.413Z,25.71
2023-02-05T09:50:38.341Z,25.86
2023-02-05T09:53:08.905Z,26.12
2023-02-05T09:55:40.285Z,28.22
2023-02-05T09:58:10.099Z,28.10
2023-02-05T10:00:46.448Z,25.62
2023-02-05T10:03:23.483Z,25.15
2023-02-05T10:06:06.231Z,24.78
2023-02-05T10:08:42.018Z,24.86
2023-02-05T10:11:19.367Z,26.01
2023-02-05T10:14:02.948Z,27.22
2023-02-05T10:16:42.834Z,29.21
2023-02-05T10:19:25.420Z,30.15
2023-02-05T10:22:05.721Z,31.79
2023-02-05T10:24:46.803Z,32.54
2023-02-05T10:27:19.409Z,30.47
2023-02-05T10:29:56.858Z,29.42
2023-02-05T10:32:26.694Z,27.23
2023-02-05T10:34:59.734Z,28.34
2023-02-05T10:37:37.392Z,27.04
2023-02-05T10:40:18.872Z,26.13
2023-02-05T10:42:51.991Z,27.08
2023-02-05T10:45:22.879Z,26.21
2023-02-05T10:48:02.502Z,25.07
2023-02-05T10:50:38.271Z,23.62
2023-02-05T10:53:08.392Z,23.71
2023-02-05T10:55:38.145Z,22.66
2023-02-05T10:58:26.089Z,21.85
2023-02-05T11:00:54.959Z,20.86
2023-02-05T11:03:24.165Z,20.99
2023-02-05T11:05:52.827Z,21.26
2023-02-05T11:08:39.546Z,21.98
2023-02-05T11:11:19.797Z,22.28
2023-02-05T11:13:52.609Z,21.80
2023-02-05T11:16:21.460Z,21.53
2023-02-05T11:18:58.843Z,21.83
2023-02-05T11:21:49.447Z,24.53
2023-02-05T11:24:30.227Z,27.23
2023-02-05T11:27:28.189Z,27.84
2023-02-05T11:29:59.217Z,25.19
2023-02-05T11:32:36.907Z,25.25
2023-02-05T11:35:19.700Z,24.95
2023-02-05T11:37:50.252Z,24.04
2023-02-05T11:40:29.002Z,23.99
2023-02-05T11:43:02.311Z,25.72
2023-02-05T11:45:36.203Z,25.78
2023-02-05T11:48:32.622Z,28.42
2023-02-05T11:51:06.595Z,31.61
2023-02-05T11:53:37.440Z,32.15
2023-02-05T11:56:12.084Z,34.70
2023-02-05T11:58:40.823Z,36.80
2023-02-05T12:01:24.218Z,39.70
2023-02-05T12:04:00.413Z,37.18
2023-02-05T12:06:33.921Z,33.06
2023-02-05T12:09:02.825Z,29.51
2023-02-05T12:12:17.232Z,28.29
2023-02-05T12:14:50.897Z,28.33
2023-02-05T12:17:30.414Z,29.07
2023-02-05T12:20:11.625Z,27.43
2023-02-05T12:22:58.517Z,28.46
2023-02-05T12:25:30.371Z,28.80
2023-02-05T12:28:11.461Z,28.09
2023-02-05T12:30:52.754Z,27.05
2023-02-05T12:33:41.573Z,24.97
2023-02-05T12:36:24.092Z,24.76
2023-02-05T12:39:21.432Z,24.28
2023-02-05T12:41:55.047Z,26.08
2023-02-05T12:44:36.556Z,24.66
2023-02-05T12:47:14.334Z,23.45
2023-02-05T12:49:57.990Z,22.98
2023-02-05T12:52:42.429Z,22.65
2023-02-05T12:55:21.441Z,23.42
2023-02-05T12:57:55.066Z,22.76
2023-02-05T13:00:29.626Z,22.42
2023-02-05T13:03:06.031Z,23.48
2023-02-05T13:05:36.502Z,22.58
2023-02-05T13:08:08.846Z,23.10
2023-02-05T13:10:45.338Z,21.42
2023-02-05T13:13:17.766Z,21.65
2023-02-05T13:15:59.993Z,22.54
2023-02-05T13:18:31.507Z,21.75
2023-02-05T13:21:20.258Z,21.21
2023-02-05T13:24:07.022Z,20.96
2023-02-05T13:26:57.579Z,20.94
2023-02-05T13:29:30.576Z,21.00
2023-02-05T13:32:15.366Z,20.33
2023-02-05T13:34:44.954Z,20.54
2023-02-05T13:37:29.834Z,20.84
2023-02-05T13:40:28.925Z,21.48
2023-02-05T13:43:41.946Z,20.62
2023-02-05T13:46:25.845Z,22.10
2023-02-05T13:49:36.952Z,22.05
2023-02-05T13:52:20.009Z,20.93
2023-02-05T13:55:14.559Z,21.09
2023-02-05T13:58:20.841Z,21.08
2023-02-05T14:01:01.042Z,21.25
2023-02-05T14:03:38.485Z,20.86
2023-02-05T14:06:29.814Z,21.05
2023-02-05T14:09:19.429Z,22.14
2023-02-05T14:11:54.781Z,23.00
2023-02-05T14:14:36.556Z,22.22
2023-02-05T14:17:43.667Z,23.75
2023-02-05T14:20:34.605Z,27.05
2023-02-05T14:23:05.133Z,28.75
2023-02-05T14:26:11.942Z,30.02
2023-02-05T14:28:51.855Z,32.27
2023-02-05T14:31:55.573Z,32.46
2023-02-05T14:34:48.881Z,31.47
2023-02-05T14:37:26.642Z,30.64
2023-02-05T14:39:55.283Z,28.82
2023-02-05T14:42:29.545Z,29.13
2023-02-05T14:45:00.778Z,30.12
2023-02-05T14:47:33.337Z,31.01
2023-02-05T14:50:05.492Z,31.36
2023-02-05T14:52:36.119Z,31.57
2023-02-05T14:55:08.738Z,32.33
2023-02-05T14:57:49.319Z,32.42
2023-02-05T15:00:35.381Z,30.38
2023-02-05T15:03:24.531Z,30.42
2023-02-05T15:06:04.888Z,31.86
2023-02-05T15:08:47.531Z,34.34
2023-02-05T15:11:30.456Z,36.05
2023-02-05T15:14:36.954Z,37.80
2023-02-05T15:17:43.819Z,41.43
2023-02-05T15:20:30.932Z,41.28
2023-02-05T15:23:07.860Z,42.58
2023-02-05T15:25:42.692Z,43.58
2023-02-05T15:28:48.710Z,45.00
2023-02-05T15:31:23.944Z,45.37
2023-02-05T15:33:59.934Z,46.28
2023-02-05T15:36:38.247Z,45.64
2023-02-05T15:39:35.377Z,45.91
2023-02-05T15:42:05.451Z,46.72
2023-02-05T15:44:35.668Z,46.90
2023-02-05T15:47:09.868Z,51.36
2023-02-05T15:49:42.209Z,56.17
2023-02-05T15:52:18.392Z,57.36
2023-02-05T15:54:47.102Z,61.38
2023-02-05T15:57:20.632Z,62.11
2023-02-05T15:59:49.290Z,64.04
2023-02-05T16:02:21.378Z,65.16
2023-02-05T16:05:09.843Z,65.39
2023-02-05T16:07:42.632Z,65.70
2023-02-05T16:10:20.863Z,65.27
2023-02-05T16:12:59.986Z,66.26
2023-02-05T16:15:35.461Z,67.66
2023-02-05T16:18:09.488Z,68.98
2023-02-05T16:20:45.081Z,69.82
2023-02-05T16:23:21.303Z,69.91
2023-02-05T16:25:53.449Z,70.45
2023-02-05T16:28:24.390Z,69.97
2023-02-05T16:30:56.828Z,70.94
2023-02-05T16:33:32.672Z,71.40
2023-02-05T16:36:03.126Z,72.17
2023-02-05T16:38:31.850Z,72.28
2023-02-05T16:41:02.171Z,74.38
2023-02-05T16:43:33.419Z,74.34
2023-02-05T16:46:34.144Z,74.33
2023-02-05T16:49:05.046Z,72.66
2023-02-05T16:51:37.525Z,72.64
2023-02-05T16:54:28.467Z,73.04
2023-02-05T16:57:00.977Z,73.88
2023-02-05T17:00:30.737Z,73.70
2023-02-05T17:03:01.160Z,72.99
2023-02-05T17:05:34.377Z,72.63
2023-02-05T17:08:07.068Z,71.75
2023-02-05T17:10:50.077Z,71.56
2023-02-05T17:13:29.553Z,71.80
2023-02-05T17:15:58.459Z,71.46
2023-02-05T17:18:32.570Z,70.01
2023-02-05T17:21:24.237Z,69.33
2023-02-05T17:23:53.180Z,69.14
2023-02-05T17:26:22.465Z,69.93
2023-02-05T17:28:55.690Z,69.68
2023-02-05T17:31:26.675Z,69.41
2023-02-05T17:33:56.341Z,67.90
2023-02-05T17:36:34.916Z,68.16
2023-02-05T17:39:05.870Z,68.95
2023-02-05T17:41:55.598Z,68.98
2023-02-05T17:44:24.195Z,69.29
2023-02-05T17:46:54.390Z,70.45
2023-02-05T17:49:23.231Z,72.04
2023-02-05T17:51:53.184Z,71.19
2023-02-05T17:55:22.676Z,73.13
2023-02-05T17:57:51.207Z,74.59
2023-02-05T18:00:21.760Z,74.39
2023-02-05T18:02:50.725Z,74.87
2023-02-05T18:05:20.628Z,74.77
2023-02-05T18:07:52.588Z,74.95
2023-02-05T18:10:23.831Z,74.55
2023-02-05T18:12:52.724Z,74.84
2023-02-05T18:15:23.588Z,74.65
2023-02-05T18:17:52.381Z,74.35
2023-02-05T18:20:21.568Z,75.23
2023-02-05T18:22:52.070Z,75.29
2023-02-05T18:25:21.132Z,74.31
2023-02-05T18:27:50.448Z,75.28
2023-02-05T18:30:19.008Z,74.99
2023-02-05T18:32:48.180Z,74.98
2023-02-05T18:35:17.059Z,75.25
2023-02-05T18:37:46.388Z,75.15
2023-02-05T18:40:16.700Z,74.92
2023-02-05T18:42:47.301Z,75.98
2023-02-05T18:45:17.180Z,75.86
2023-02-05T18:47:46.771Z,76.00
2023-02-05T18:50:16.601Z,76.22
2023-02-05T18:52:45.746Z,76.28
2023-02-05T18:55:18.667Z,76.24
2023-02-05T18:57:52.960Z,76.32
2023-02-05T19:00:25.046Z,75.57
2023-02-05T19:02:56.361Z,75.43
2023-02-05T19:05:27.091Z,75.96
2023-02-05T19:08:01.994Z,77.02
2023-02-05T19:10:34.473Z,77.05
2023-02-05T19:13:03.521Z,76.74
2023-02-05T19:15:33.146Z,75.95
2023-02-05T19:18:01.978Z,76.17
2023-02-05T19:20:35.038Z,76.25
2023-02-05T19:23:07.171Z,76.50
2023-02-05T19:25:42.478Z,77.32
2023-02-05T19:28:11.450Z,76.63
2023-02-05T19:30:39.905Z,76.13
2023-02-05T19:33:08.535Z,75.99
2023-02-05T19:35:37.342Z,75.26
2023-02-05T19:38:06.206Z,75.56
2023-02-05T19:40:36.566Z,76.68
2023-02-05T19:43:07.337Z,76.53
2023-02-05T19:45:38.180Z,77.38
2023-02-05T19:48:07.339Z,78.57
2023-02-05T19:50:45.131Z,79.24
2023-02-05T19:53:14.348Z,78.75
2023-02-05T19:55:45.860Z,78.52
2023-02-05T19:58:18.456Z,80.05
2023-02-05T20:00:50.106Z,78.88
2023-02-05T20:03:30.432Z,80.47
2023-02-05T20:06:01.249Z,80.90
2023-02-05T20:08:32.445Z,80.13
2023-02-05T20:11:03.990Z,81.02
2023-02-05T20:13:37.176Z,81.32
2023-02-05T20:16:08.082Z,82.15
2023-02-05T20:18:36.870Z,83.29
2023-02-05T20:21:07.154Z,82.77
2023-02-05T20:23:35.891Z,82.56
2023-02-05T20:26:08.275Z,83.31
2023-02-05T20:29:00.153Z,82.97
2023-02-05T20:31:34.851Z,83.80
2023-02-05T20:34:04.598Z,81.79
2023-02-05T20:36:38.430Z,83.06
2023-02-05T20:39:09.253Z,83.50
2023-02-05T20:41:38.043Z,82.49
2023-02-05T20:44:08.584Z,81.61
2023-02-05T20:47:02.268Z,82.53
2023-02-05T20:49:31.260Z,81.85
2023-02-05T20:52:01.844Z,82.45
2023-02-05T20:54:33.295Z,82.65
2023-02-05T20:57:01.936Z,83.33
2023-02-05T20:59:38.692Z,84.17
2023-02-05T21:02:11.384Z,82.87
2023-02-05T21:04:40.151Z,84.05
2023-02-05T21:07:08.841Z,82.94
2023-02-05T21:09:39.379Z,82.01
2023-02-05T21:12:10.139Z,82.13
2023-02-05T21:14:40.993Z,82.23
2023-02-05T21:17:10.743Z,83.67
2023-02-05T21:20:29.045Z,83.07
2023-02-05T21:23:14.663Z,82.39
2023-02-05T21:25:43.508Z,80.84
2023-02-05T21:28:12.750Z,81.28
2023-02-05T21:30:51.491Z,80.63
2023-02-05T21:33:20.153Z,81.51
2023-02-05T21:35:48.891Z,82.94
2023-02-05T21:38:17.556Z,82.34
2023-02-05T21:40:46.608Z,84.24
2023-02-05T21:43:18.054Z,83.17
2023-02-05T21:45:47.924Z,82.27
2023-02-05T21:48:16.488Z,81.74
2023-02-05T21:50:44.893Z,82.82
2023-02-05T21:53:16.382Z,82.27
2023-02-05T21:55:45.267Z,82.21
2023-02-05T21:58:13.860Z,82.47
2023-02-05T22:00:45.273Z,82.08
2023-02-05T22:03:15.630Z,83.56
2023-02-05T22:05:47.315Z,83.92
2023-02-05T22:08:16.197Z,83.68
2023-02-05T22:10:45.099Z,82.77
2023-02-05T22:13:13.892Z,80.95
2023-02-05T22:15:44.772Z,81.06
2023-02-05T22:18:14.776Z,81.13
2023-02-05T22:20:44.529Z,81.88
2023-02-05T22:23:13.505Z,81.79
2023-02-05T22:25:47.690Z,80.69
2023-02-05T22:28:16.272Z,82.37
2023-02-05T22:30:47.728Z,82.35
2023-02-05T22:33:20.792Z,81.90
2023-02-05T22:35:53.388Z,83.28
2023-02-05T22:38:21.957Z,83.23
2023-02-05T22:40:50.581Z,82.86
2023-02-05T22:43:19.138Z,83.07
2023-02-05T22:49:41.031Z,82.54
2023-02-05T22:52:09.675Z,83.60
2023-02-05T22:54:38.262Z,84.50
2023-02-05T22:57:11.393Z,84.01
2023-02-05T22:59:40.060Z,82.91
2023-02-05T23:02:17.377Z,84.12
2023-02-05T23:04:47.667Z,83.82
2023-02-05T23:07:16.488Z,84.43
2023-02-05T23:09:46.261Z,84.66
2023-02-05T23:12:15.036Z,84.21
2023-02-05T23:14:45.653Z,83.79
2023-02-05T23:17:14.381Z,86.29
2023-02-05T23:19:43.060Z,86.05
2023-02-05T23:22:12.959Z,85.45
2023-02-05T23:24:42.110Z,85.50
2023-02-05T23:27:10.857Z,85.03
2023-02-05T23:29:39.835Z,83.99
2023-02-05T23:32:15.085Z,84.22
2023-02-05T23:34:43.905Z,83.70
2023-02-05T23:37:14.020Z,84.58
2023-02-05T23:39:43.563Z,84.62
2023-02-05T23:42:12.170Z,84.06
2023-02-05T23:44:40.741Z,84.11
2023-02-05T23:47:09.607Z,84.65
2023-02-05T23:49:38.277Z,85.20
2023-02-05T23:52:32.968Z,85.92
2023-02-05T23:55:01.793Z,85.45
2023-02-05T23:57:30.675Z,85.08
2023-02-05T23:59:59.458Z,84.98
